createdAt,value
2018-07-28T00:02:03.069Z,99217.83
2018-07-28T00:04:31.828Z,99225.09
2018-07-28T00:07:00.558Z,99221.50
2018-07-28T00:09:29.301Z,99225.03
2018-07-28T00:11:58.034Z,99223.75
2018-07-28T00:14:26.754Z,99223.05
2018-07-28T00:16:55.466Z,99219.08
2018-07-28T00:19:24.224Z,99219.97
2018-07-28T00:21:53.061Z,99226.17
2018-07-28T00:24:21.822Z,99235.20
2018-07-28T00:26:50.591Z,99239.65
2018-07-28T00:29:19.335Z,99239.37
2018-07-28T00:31:48.067Z,99237.18
2018-07-28T00:34:16.918Z,99238.01
2018-07-28T00:36:45.698Z,99235.84
2018-07-28T00:39:14.951Z,99235.28
2018-07-28T00:41:43.930Z,99231.75
2018-07-28T00:44:12.678Z,99228.77
2018-07-28T00:46:41.465Z,99221.71
2018-07-28T00:49:10.274Z,99227.23
2018-07-28T00:51:38.998Z,99223.16
2018-07-28T00:54:07.842Z,99224.84
2018-07-28T00:56:36.597Z,99222.50
2018-07-28T00:59:05.354Z,99226.77
2018-07-28T01:01:34.084Z,99225.52
2018-07-28T01:04:02.873Z,99227.37
2018-07-28T01:06:31.645Z,99229.03
2018-07-28T01:09:00.400Z,99233.06
2018-07-28T01:11:29.289Z,99229.28
2018-07-28T01:13:58.053Z,99231.69
2018-07-28T01:16:26.799Z,99226.69
2018-07-28T01:18:55.677Z,99221.63
2018-07-28T01:21:24.413Z,99225.84
2018-07-28T01:23:53.160Z,99226.62
2018-07-28T01:26:21.900Z,99226.34
2018-07-28T01:28:55.550Z,99226.09
2018-07-28T01:31:24.304Z,99223.03
2018-07-28T01:33:53.165Z,99218.16
2018-07-28T01:36:21.914Z,99217.11
2018-07-28T01:38:50.674Z,99225.89
2018-07-28T01:41:19.473Z,99222.38
2018-07-28T01:43:48.234Z,99224.86
2018-07-28T01:46:16.971Z,99222.22
2018-07-28T01:48:45.801Z,99217.38
2018-07-28T01:51:14.529Z,99207.97
2018-07-28T01:53:43.339Z,99212.44
2018-07-28T01:56:12.085Z,99213.63
2018-07-28T01:58:40.803Z,99219.07
2018-07-28T02:01:09.551Z,99214.30
2018-07-28T02:03:38.318Z,99213.22
2018-07-28T02:06:07.167Z,99211.67
2018-07-28T02:08:35.909Z,99206.33
2018-07-28T02:11:04.693Z,99205.54
2018-07-28T02:13:33.446Z,99210.78
2018-07-28T02:16:02.169Z,99217.42
2018-07-28T02:18:30.919Z,99213.42
2018-07-28T02:20:59.655Z,99211.55
2018-07-28T02:23:28.372Z,99207.52
2018-07-28T02:25:57.086Z,99212.17
2018-07-28T02:28:25.800Z,99210.81
2018-07-28T02:30:54.575Z,99221.59
2018-07-28T02:33:23.302Z,99224.56
2018-07-28T02:35:52.151Z,99224.05
2018-07-28T02:38:20.941Z,99224.05
2018-07-28T02:40:50.049Z,99224.31
2018-07-28T02:43:18.897Z,99225.67
2018-07-28T02:45:47.606Z,99228.95
2018-07-28T02:48:16.429Z,99228.19
2018-07-28T02:50:45.157Z,99233.09
2018-07-28T02:53:13.908Z,99234.19
2018-07-28T02:55:42.766Z,99237.11
2018-07-28T02:58:11.497Z,99230.86
2018-07-28T03:00:40.214Z,99238.73
2018-07-28T03:03:08.954Z,99232.71
2018-07-28T03:05:37.697Z,99230.55
2018-07-28T03:08:07.217Z,99231.61
2018-07-28T03:10:35.941Z,99231.31
2018-07-28T03:13:04.738Z,99231.76
2018-07-28T03:15:36.106Z,99229.49
2018-07-28T03:18:06.703Z,99228.73
2018-07-28T03:20:35.463Z,99237.45
2018-07-28T03:23:04.895Z,99234.44
2018-07-28T03:25:33.626Z,99232.56
2018-07-28T03:28:02.407Z,99232.02
2018-07-28T03:30:31.129Z,99235.29
2018-07-28T03:32:59.901Z,99230.34
2018-07-28T03:35:28.638Z,99234.92
2018-07-28T03:37:57.349Z,99240.45
2018-07-28T03:40:26.101Z,99238.95
2018-07-28T03:42:54.858Z,99241.37
2018-07-28T03:45:23.645Z,99241.92
2018-07-28T03:47:52.382Z,99237.09
2018-07-28T03:50:21.191Z,99238.39
2018-07-28T03:52:50.014Z,99232.56
2018-07-28T03:55:18.789Z,99236.58
2018-07-28T03:57:47.586Z,99234.53
2018-07-28T04:00:16.375Z,99239.80
2018-07-28T04:02:45.130Z,99238.91
2018-07-28T04:05:13.940Z,99236.91
2018-07-28T04:07:42.732Z,99230.31
2018-07-28T04:10:11.533Z,99230.17
2018-07-28T04:12:40.553Z,99235.05
2018-07-28T04:15:11.824Z,99231.70
2018-07-28T04:18:00.911Z,99237.47
2018-07-28T04:20:29.659Z,99238.66
2018-07-28T04:22:58.541Z,99242.61
2018-07-28T04:25:27.330Z,99240.53
2018-07-28T04:27:56.090Z,99240.09
2018-07-28T04:30:24.925Z,99241.55
2018-07-28T04:32:53.684Z,99239.73
2018-07-28T04:35:22.423Z,99246.06
2018-07-28T04:37:51.144Z,99255.27
2018-07-28T04:40:19.896Z,99257.62
2018-07-28T04:42:48.641Z,99262.34
2018-07-28T04:45:17.372Z,99261.72
2018-07-28T04:47:46.093Z,99262.74
2018-07-28T04:50:14.830Z,99261.69
2018-07-28T04:52:43.595Z,99270.47
2018-07-28T04:55:13.467Z,99267.39
2018-07-28T04:57:42.219Z,99268.11
2018-07-28T05:00:10.925Z,99264.94
2018-07-28T05:02:39.657Z,99271.34
2018-07-28T05:05:08.407Z,99270.28
2018-07-28T05:07:37.205Z,99266.25
2018-07-28T05:10:05.919Z,99263.83
2018-07-28T05:12:34.669Z,99267.05
2018-07-28T05:15:03.415Z,99262.50
2018-07-28T05:17:32.160Z,99260.91
2018-07-28T05:20:00.928Z,99266.45
2018-07-28T05:22:29.641Z,99269.27
2018-07-28T05:24:58.380Z,99270.41
2018-07-28T05:27:27.085Z,99266.27
2018-07-28T05:29:55.794Z,99272.08
2018-07-28T05:32:24.530Z,99277.49
2018-07-28T05:34:53.239Z,99272.06
2018-07-28T05:37:21.942Z,99281.83
2018-07-28T05:39:50.645Z,99276.03
2018-07-28T05:42:19.334Z,99281.03
2018-07-28T05:44:48.087Z,99279.77
2018-07-28T05:47:16.782Z,99274.20
2018-07-28T05:49:45.470Z,99272.94
2018-07-28T05:52:14.171Z,99267.67
2018-07-28T05:54:42.873Z,99277.58
2018-07-28T05:57:11.605Z,99272.73
2018-07-28T05:59:40.313Z,99275.16
2018-07-28T06:02:09.056Z,99275.33
2018-07-28T06:04:37.762Z,99267.29
2018-07-28T06:07:07.107Z,99272.16
2018-07-28T06:09:35.873Z,99272.48
2018-07-28T06:12:04.646Z,99276.52
2018-07-28T06:14:33.388Z,99274.11
2018-07-28T06:17:02.130Z,99269.52
2018-07-28T06:19:30.869Z,99266.86
2018-07-28T06:21:59.666Z,99262.73
2018-07-28T06:24:28.390Z,99260.35
2018-07-28T06:26:57.121Z,99257.87
2018-07-28T06:29:25.918Z,99255.75
2018-07-28T06:31:54.692Z,99254.00
2018-07-28T06:34:23.453Z,99258.05
2018-07-28T06:36:52.685Z,99260.11
2018-07-28T06:39:21.400Z,99259.92
2018-07-28T06:41:50.143Z,99258.09
2018-07-28T06:44:18.866Z,99258.25
2018-07-28T06:46:47.685Z,99264.69
2018-07-28T06:49:16.429Z,99268.36
2018-07-28T06:51:45.171Z,99270.20
2018-07-28T06:54:13.948Z,99270.68
2018-07-28T06:56:42.676Z,99274.72
2018-07-28T06:59:11.538Z,99278.03
2018-07-28T07:01:40.382Z,99269.00
2018-07-28T07:04:09.129Z,99276.39
2018-07-28T07:06:37.885Z,99274.45
2018-07-28T07:09:09.432Z,99282.03
2018-07-28T07:11:38.237Z,99282.16
2018-07-28T07:14:07.035Z,99276.55
2018-07-28T07:16:36.023Z,99270.89
2018-07-28T07:19:04.758Z,99277.22
2018-07-28T07:21:33.626Z,99275.98
2018-07-28T07:24:02.435Z,99279.22
2018-07-28T07:26:31.186Z,99274.05
2018-07-28T07:28:59.918Z,99279.41
2018-07-28T07:31:28.685Z,99277.69
2018-07-28T07:33:57.444Z,99280.14
2018-07-28T07:36:26.230Z,99281.34
2018-07-28T07:38:54.970Z,99274.34
2018-07-28T07:41:26.714Z,99271.89
2018-07-28T07:43:55.558Z,99269.94
2018-07-28T07:46:24.296Z,99276.82
2018-07-28T07:48:53.010Z,99274.02
2018-07-28T07:51:21.760Z,99277.66
2018-07-28T07:53:50.530Z,99274.67
2018-07-28T07:56:19.272Z,99272.25
2018-07-28T07:58:47.987Z,99271.05
2018-07-28T08:01:16.688Z,99275.19
2018-07-28T08:03:45.383Z,99277.56
2018-07-28T08:06:14.253Z,99275.33
2018-07-28T08:08:43.060Z,99279.30
2018-07-28T08:11:11.802Z,99279.55
2018-07-28T08:13:41.054Z,99276.55
2018-07-28T08:16:09.772Z,99270.72
2018-07-28T08:18:38.661Z,99273.61
2018-07-28T08:21:07.463Z,99279.61
2018-07-28T08:23:36.170Z,99266.66
2018-07-28T08:26:05.161Z,99279.34
2018-07-28T08:28:34.095Z,99272.50
2018-07-28T08:31:03.050Z,99276.64
2018-07-28T08:33:31.957Z,99268.15
2018-07-28T08:36:00.837Z,99267.59
2018-07-28T08:38:29.660Z,99255.98
2018-07-28T08:40:58.508Z,99270.77
2018-07-28T08:43:27.319Z,99265.47
2018-07-28T08:45:56.093Z,99257.34
2018-07-28T08:48:24.925Z,99261.82
2018-07-28T08:50:54.038Z,99261.62
2018-07-28T08:53:23.517Z,99251.78
2018-07-28T08:55:52.321Z,99255.22
2018-07-28T08:58:21.374Z,99251.57
2018-07-28T09:00:50.233Z,99239.29
2018-07-28T09:03:19.278Z,99243.88
2018-07-28T09:05:48.032Z,99237.69
2018-07-28T09:08:16.981Z,99238.50
2018-07-28T09:10:45.982Z,99238.36
2018-07-28T09:13:14.997Z,99223.92
2018-07-28T09:15:43.770Z,99230.64
2018-07-28T09:18:12.564Z,99228.16
2018-07-28T09:20:41.460Z,99227.00
2018-07-28T09:23:17.549Z,99223.87
2018-07-28T09:25:46.262Z,99222.61
2018-07-28T09:28:15.046Z,99227.06
2018-07-28T09:30:44.558Z,99228.27
2018-07-28T09:33:13.335Z,99228.09
2018-07-28T09:35:42.100Z,99218.83
2018-07-28T09:38:10.965Z,99220.00
2018-07-28T09:40:40.997Z,99220.31
2018-07-28T09:43:10.541Z,99210.91
2018-07-28T09:45:39.444Z,99219.84
2018-07-28T09:48:08.674Z,99214.75
2018-07-28T09:50:37.389Z,99221.95
2018-07-28T09:53:06.124Z,99215.17
2018-07-28T09:55:34.866Z,99216.78
2018-07-28T09:58:03.585Z,99218.42
2018-07-28T10:00:37.541Z,99224.22
2018-07-28T10:03:06.943Z,99222.70
2018-07-28T10:05:36.680Z,99212.05
2018-07-28T10:08:05.367Z,99214.34
2018-07-28T10:10:34.187Z,99213.07
2018-07-28T10:13:02.916Z,99215.39
2018-07-28T10:15:31.642Z,99212.45
2018-07-28T10:18:00.356Z,99213.86
2018-07-28T10:20:29.057Z,99214.49
2018-07-28T10:22:57.868Z,99201.44
2018-07-28T10:25:26.653Z,99203.30
2018-07-28T10:27:55.353Z,99203.11
2018-07-28T10:30:24.054Z,99197.04
2018-07-28T10:32:52.778Z,99199.88
2018-07-28T10:35:21.486Z,99202.98
2018-07-28T10:37:50.214Z,99202.77
2018-07-28T10:40:18.944Z,99206.06
2018-07-28T10:42:47.705Z,99201.63
2018-07-28T10:45:16.666Z,99196.92
2018-07-28T10:47:45.386Z,99196.88
2018-07-28T10:50:14.114Z,99187.24
2018-07-28T10:52:42.825Z,99188.52
2018-07-28T10:55:11.746Z,99195.14
2018-07-28T10:57:40.494Z,99194.45
2018-07-28T11:00:09.439Z,99184.96
2018-07-28T11:02:38.154Z,99186.61
2018-07-28T11:05:07.221Z,99184.62
2018-07-28T11:07:35.937Z,99168.56
2018-07-28T11:10:05.189Z,99165.05
2018-07-28T11:12:33.941Z,99167.30
2018-07-28T11:15:02.766Z,99167.30
2018-07-28T11:17:31.489Z,99159.58
2018-07-28T11:20:00.233Z,99156.98
2018-07-28T11:22:28.960Z,99165.78
2018-07-28T11:24:57.717Z,99157.69
2018-07-28T11:27:26.486Z,99156.13
2018-07-28T11:29:55.224Z,99149.18
2018-07-28T11:32:34.964Z,99145.09
2018-07-28T11:35:14.764Z,99143.83
2018-07-28T11:38:03.675Z,99134.92
2018-07-28T11:40:44.837Z,99127.70
2018-07-28T11:43:24.970Z,99128.73
2018-07-28T11:45:53.781Z,99132.83
2018-07-28T11:48:22.536Z,99124.32
2018-07-28T11:50:51.258Z,99125.05
2018-07-28T11:53:20.036Z,99130.98
2018-07-28T11:55:48.828Z,99133.73
2018-07-28T11:58:17.684Z,99128.94
2018-07-28T12:00:46.364Z,99122.34
2018-07-28T12:03:15.105Z,99122.55
2018-07-28T12:05:43.827Z,99120.43
2018-07-28T12:08:12.646Z,99118.83
2018-07-28T12:10:41.374Z,99114.56
2018-07-28T12:13:10.116Z,99122.05
2018-07-28T12:15:38.921Z,99121.02
2018-07-28T12:18:07.821Z,99111.81
2018-07-28T12:20:36.664Z,99107.25
2018-07-28T12:23:05.441Z,99106.37
2018-07-28T12:25:34.277Z,99108.41
2018-07-28T12:28:03.074Z,99106.39
2018-07-28T12:30:32.057Z,99114.03
2018-07-28T12:33:00.881Z,99112.67
2018-07-28T12:35:29.689Z,99108.68
2018-07-28T12:37:58.537Z,99104.13
2018-07-28T12:40:27.451Z,99102.14
2018-07-28T12:42:56.334Z,99094.67
2018-07-28T12:45:25.147Z,99094.53
2018-07-28T12:47:53.952Z,99092.88
2018-07-28T12:50:22.716Z,99090.88
2018-07-28T12:52:51.470Z,99100.14
2018-07-28T12:55:20.273Z,99096.06
2018-07-28T12:57:55.624Z,99098.37
2018-07-28T13:00:24.504Z,99099.58
2018-07-28T13:02:53.389Z,99103.75
2018-07-28T13:05:22.109Z,99096.56
2018-07-28T13:07:50.905Z,99094.73
2018-07-28T13:10:19.876Z,99091.17
2018-07-28T13:12:48.533Z,99091.17
2018-07-28T13:15:17.349Z,99093.63
2018-07-28T13:17:46.169Z,99095.29
2018-07-28T13:20:14.940Z,99093.67
2018-07-28T13:22:43.789Z,99099.70
2018-07-28T13:25:12.741Z,99095.70
2018-07-28T13:27:41.518Z,99091.63
2018-07-28T13:30:10.310Z,99092.89
2018-07-28T13:32:39.085Z,99093.88
2018-07-28T13:35:07.893Z,99098.70
2018-07-28T13:37:36.729Z,99100.23
2018-07-28T13:40:05.599Z,99097.92
2018-07-28T13:42:34.426Z,99100.73
2018-07-28T13:45:03.198Z,99103.97
2018-07-28T13:47:31.976Z,99096.66
2018-07-28T13:50:00.798Z,99106.67
2018-07-28T13:52:29.571Z,99113.06
2018-07-28T13:54:58.364Z,99111.08
2018-07-28T13:57:27.152Z,99117.39
2018-07-28T13:59:55.900Z,99121.61
2018-07-28T14:02:24.663Z,99120.86
2018-07-28T14:04:53.411Z,99121.41
2018-07-28T14:07:22.144Z,99129.72
2018-07-28T14:09:51.051Z,99123.80
2018-07-28T14:12:19.855Z,99127.44
2018-07-28T14:14:48.616Z,99124.95
2018-07-28T14:17:17.365Z,99125.47
2018-07-28T14:19:46.250Z,99120.95
2018-07-28T14:22:14.990Z,99125.91
2018-07-28T14:24:43.801Z,99120.99
2018-07-28T14:27:12.555Z,99121.84
2018-07-28T14:29:41.289Z,99125.81
2018-07-28T14:32:10.026Z,99123.64
2018-07-28T14:34:38.725Z,99122.25
2018-07-28T14:37:07.473Z,99125.33
2018-07-28T14:39:36.233Z,99124.59
2018-07-28T14:42:04.977Z,99129.96
2018-07-28T14:44:33.762Z,99121.58
2018-07-28T14:47:02.710Z,99128.45
2018-07-28T14:49:31.462Z,99124.79
2018-07-28T14:52:00.270Z,99124.42
2018-07-28T14:54:29.099Z,99109.73
2018-07-28T14:56:57.886Z,99125.30
2018-07-28T14:59:26.696Z,99118.52
2018-07-28T15:01:55.499Z,99120.86
2018-07-28T15:04:24.334Z,99116.19
2018-07-28T15:06:53.078Z,99112.94
2018-07-28T15:09:21.823Z,99112.52
2018-07-28T15:11:50.565Z,99112.69
2018-07-28T15:14:19.325Z,99116.13
2018-07-28T15:16:48.077Z,99108.52
2018-07-28T15:19:16.821Z,99112.36
2018-07-28T15:21:45.576Z,99106.33
2018-07-28T15:24:14.319Z,99109.53
2018-07-28T15:26:43.081Z,99108.58
2018-07-28T15:29:11.830Z,99104.27
2018-07-28T15:31:40.575Z,99102.02
2018-07-28T15:34:09.435Z,99097.12
2018-07-28T15:36:38.182Z,99099.06
2018-07-28T15:39:08.761Z,99096.18
2018-07-28T15:41:37.541Z,99092.70
2018-07-28T15:44:06.476Z,99083.62
2018-07-28T15:46:35.237Z,99079.13
2018-07-28T15:49:04.292Z,99080.08
2018-07-28T15:51:33.092Z,99078.06
2018-07-28T15:54:01.930Z,99085.76
2018-07-28T15:56:30.803Z,99090.12
2018-07-28T15:59:00.390Z,99088.84
2018-07-28T16:01:29.113Z,99082.45
2018-07-28T16:03:57.957Z,99088.85
2018-07-28T16:06:26.726Z,99093.23
2018-07-28T16:08:55.984Z,99091.95
2018-07-28T16:11:24.984Z,99092.18
2018-07-28T16:13:53.785Z,99097.11
2018-07-28T16:16:22.588Z,99089.43
2018-07-28T16:18:51.367Z,99097.59
2018-07-28T16:21:20.138Z,99099.99
2018-07-28T16:23:48.902Z,99102.52
2018-07-28T16:26:17.650Z,99097.59
2018-07-28T16:28:46.442Z,99099.42
2018-07-28T16:31:15.212Z,99104.70
2018-07-28T16:33:43.946Z,99103.89
2018-07-28T16:36:12.736Z,99107.45
2018-07-28T16:38:41.505Z,99111.00
2018-07-28T16:41:10.282Z,99116.73
2018-07-28T16:43:39.133Z,99114.77
2018-07-28T16:46:08.202Z,99117.07
2018-07-28T16:48:36.991Z,99120.39
2018-07-28T16:51:05.840Z,99126.02
2018-07-28T16:53:34.658Z,99124.06
2018-07-28T16:56:03.507Z,99129.20
2018-07-28T16:58:32.323Z,99127.52
2018-07-28T17:01:01.129Z,99130.69
2018-07-28T17:03:29.916Z,99134.98
2018-07-28T17:05:59.096Z,99127.75
2018-07-28T17:08:27.912Z,99133.45
2018-07-28T17:10:56.710Z,99134.61
2018-07-28T17:13:25.430Z,99145.03
2018-07-28T17:15:54.253Z,99147.52
2018-07-28T17:18:23.722Z,99149.95
2018-07-28T17:20:52.980Z,99151.33
2018-07-28T17:23:21.720Z,99160.87
2018-07-28T17:25:50.473Z,99166.89
2018-07-28T17:28:19.243Z,99164.80
2018-07-28T17:30:48.078Z,99165.38
2018-07-28T17:33:16.894Z,99169.14
2018-07-28T17:35:45.722Z,99173.22
2018-07-28T17:38:14.493Z,99171.88
2018-07-28T17:40:43.326Z,99176.85
2018-07-28T17:43:12.150Z,99176.30
2018-07-28T17:45:40.976Z,99178.19
2018-07-28T17:48:09.861Z,99178.66
2018-07-28T17:50:38.616Z,99179.33
2018-07-28T17:53:07.453Z,99182.47
2018-07-28T17:55:36.718Z,99175.38
2018-07-28T17:58:05.558Z,99180.47
2018-07-28T18:00:34.374Z,99180.34
2018-07-28T18:03:03.133Z,99175.80
2018-07-28T18:05:31.866Z,99180.81
2018-07-28T18:08:00.643Z,99191.05
2018-07-28T18:10:29.650Z,99198.00
2018-07-28T18:12:58.445Z,99200.27
2018-07-28T18:15:27.204Z,99201.47
2018-07-28T18:17:55.957Z,99202.27
2018-07-28T18:20:24.714Z,99203.88
2018-07-28T18:22:53.522Z,99208.09
2018-07-28T18:25:22.285Z,99212.44
2018-07-28T18:27:51.061Z,99211.96
2018-07-28T18:30:19.840Z,99208.75
2018-07-28T18:32:48.616Z,99210.84
2018-07-28T18:35:17.422Z,99213.98
2018-07-28T18:37:46.219Z,99212.94
2018-07-28T18:40:15.007Z,99222.92
2018-07-28T18:42:43.809Z,99230.97
2018-07-28T18:45:12.560Z,99226.63
2018-07-28T18:47:41.440Z,99229.37
2018-07-28T18:50:10.280Z,99228.73
2018-07-28T18:52:39.081Z,99229.21
2018-07-28T18:55:07.987Z,99230.67
2018-07-28T18:57:36.795Z,99233.65
2018-07-28T19:00:07.829Z,99229.95
2018-07-28T19:02:36.640Z,99227.20
2018-07-28T19:05:06.309Z,99231.23
2018-07-28T19:07:35.132Z,99231.72
2018-07-28T19:10:03.908Z,99225.02
2018-07-28T19:12:37.880Z,99226.06
2018-07-28T19:15:06.660Z,99222.72
2018-07-28T19:17:40.655Z,99225.46
2018-07-28T19:20:09.573Z,99224.56
2018-07-28T19:22:43.457Z,99216.17
2018-07-28T19:25:12.270Z,99217.54
2018-07-28T19:27:44.403Z,99215.78
2018-07-28T19:30:13.209Z,99213.43
2018-07-28T19:32:41.999Z,99206.40
2018-07-28T19:35:10.781Z,99214.22
2018-07-28T19:37:39.580Z,99213.72
2018-07-28T19:40:08.369Z,99212.34
2018-07-28T19:42:42.388Z,99214.19
2018-07-28T19:45:11.247Z,99209.20
2018-07-28T19:47:40.074Z,99210.61
2018-07-28T19:50:08.882Z,99215.23
2018-07-28T19:52:37.668Z,99211.45
2018-07-28T19:55:06.483Z,99209.11
2018-07-28T19:57:35.262Z,99219.72
2018-07-28T20:00:04.031Z,99220.67
2018-07-28T20:02:32.820Z,99230.45
2018-07-28T20:05:08.139Z,99222.77
2018-07-28T20:07:36.881Z,99219.23
2018-07-28T20:10:05.652Z,99219.23
2018-07-28T20:12:34.406Z,99218.67
2018-07-28T20:15:03.195Z,99215.02
2018-07-28T20:17:31.986Z,99217.02
2018-07-28T20:20:00.782Z,99221.05
2018-07-28T20:22:29.604Z,99231.31
2018-07-28T20:24:58.408Z,99231.70
2018-07-28T20:27:27.200Z,99235.24
2018-07-28T20:30:02.425Z,99232.44
2018-07-28T20:32:31.231Z,99232.27
2018-07-28T20:35:02.549Z,99237.78
2018-07-28T20:37:34.537Z,99240.09
2018-07-28T20:40:07.096Z,99245.86
2018-07-28T20:42:39.398Z,99249.66
2018-07-28T20:45:11.648Z,99245.36
2018-07-28T20:47:43.579Z,99242.83
2018-07-28T20:50:15.731Z,99244.51
2018-07-28T20:52:48.067Z,99248.09
2018-07-28T20:55:19.590Z,99241.37
2018-07-28T20:57:51.283Z,99244.77
2018-07-28T21:00:23.293Z,99246.50
2018-07-28T21:02:55.235Z,99248.67
2018-07-28T21:05:26.660Z,99240.23
2018-07-28T21:07:58.756Z,99244.01
2018-07-28T21:10:30.589Z,99246.25
2018-07-28T21:13:02.531Z,99238.94
2018-07-28T21:15:34.801Z,99244.64
2018-07-28T21:18:06.280Z,99237.18
2018-07-28T21:20:38.976Z,99239.25
2018-07-28T21:23:11.522Z,99236.06
2018-07-28T21:32:31.057Z,99230.13
2018-07-28T21:35:04.740Z,99226.90
2018-07-28T21:37:40.033Z,99221.05
2018-07-28T21:40:11.323Z,99217.73
2018-07-28T21:42:44.415Z,99210.83
2018-07-28T21:45:16.379Z,99213.07
2018-07-28T21:47:48.320Z,99211.95
2018-07-28T21:50:19.862Z,99208.45
2018-07-28T21:52:53.055Z,99210.13
2018-07-28T21:55:21.936Z,99208.20
2018-07-28T21:57:50.801Z,99213.98
2018-07-28T22:00:19.577Z,99206.77
2018-07-28T22:02:49.838Z,99205.34
2018-07-28T22:05:20.539Z,99200.68
2018-07-28T22:07:50.523Z,99199.88
2018-07-28T22:10:19.248Z,99193.64
2018-07-28T22:12:47.973Z,99199.03
2018-07-28T22:15:16.749Z,99195.49
2018-07-28T22:17:45.515Z,99192.77
2018-07-28T22:20:14.286Z,99191.67
2018-07-28T22:22:43.025Z,99184.25
2018-07-28T22:25:11.765Z,99193.56
2018-07-28T22:27:40.544Z,99183.94
2018-07-28T22:30:09.303Z,99187.69
2018-07-28T22:32:38.042Z,99187.94
2018-07-28T22:35:06.792Z,99185.45
2018-07-28T22:37:35.615Z,99186.33
2018-07-28T22:40:04.414Z,99182.27
2018-07-28T22:42:52.144Z,99190.45
2018-07-28T22:45:21.421Z,99199.52
2018-07-28T22:47:50.150Z,99201.99
2018-07-28T22:50:18.981Z,99202.90
2018-07-28T22:52:47.753Z,99208.20
2018-07-28T22:55:16.508Z,99209.32
2018-07-28T22:57:45.246Z,99218.28
2018-07-28T23:00:14.007Z,99220.39
2018-07-28T23:02:42.771Z,99218.16
2018-07-28T23:05:11.521Z,99218.92
2018-07-28T23:07:40.312Z,99210.36
2018-07-28T23:10:09.070Z,99205.33
2018-07-28T23:12:37.812Z,99203.75
2018-07-28T23:15:06.717Z,99207.10
2018-07-28T23:17:35.445Z,99210.02
2018-07-28T23:20:04.766Z,99206.94
2018-07-28T23:22:33.492Z,99205.61
2018-07-28T23:25:02.274Z,99208.47
2018-07-28T23:27:31.021Z,99205.74
2018-07-28T23:29:59.778Z,99200.53
2018-07-28T23:32:28.553Z,99208.56
2018-07-28T23:34:57.286Z,99204.82
2018-07-28T23:37:26.035Z,99200.48
2018-07-28T23:39:54.862Z,99198.97
2018-07-28T23:42:23.613Z,99195.53
2018-07-28T23:44:52.387Z,99203.56
2018-07-28T23:47:21.149Z,99200.27
2018-07-28T23:49:49.912Z,99205.17
2018-07-28T23:52:18.649Z,99204.92
2018-07-28T23:54:47.398Z,99207.48
2018-07-28T23:57:16.176Z,99207.77
2018-07-28T23:59:45.002Z,99201.86
